createdAt,value
2023-04-10T00:02:07.720Z,102450.88
2023-04-10T00:04:40.123Z,102450.03
2023-04-10T00:07:12.661Z,102444.00
2023-04-10T00:09:44.734Z,102442.03
2023-04-10T00:12:16.957Z,102452.56
2023-04-10T00:14:49.070Z,102448.28
2023-04-10T00:17:21.278Z,102447.50
2023-04-10T00:19:53.424Z,102440.47
2023-04-10T00:22:26.152Z,102434.34
2023-04-10T00:24:58.205Z,102436.22
2023-04-10T00:27:30.378Z,102430.94
2023-04-10T00:30:02.938Z,102430.03
2023-04-10T00:32:35.171Z,102424.00
2023-04-10T00:35:09.366Z,102418.63
2023-04-10T00:37:42.001Z,102420.41
2023-04-10T00:40:14.162Z,102414.25
2023-04-10T00:42:46.864Z,102416.03
2023-04-10T00:45:19.178Z,102412.53
2023-04-10T00:47:51.985Z,102421.22
2023-04-10T00:50:24.801Z,102408.91
2023-04-10T00:52:57.820Z,102402.63
2023-04-10T00:55:30.550Z,102409.50
2023-04-10T00:58:02.967Z,102403.31
2023-04-10T01:00:35.424Z,102395.44
2023-04-10T01:03:12.152Z,102393.56
2023-04-10T01:05:54.721Z,102390.88
2023-04-10T01:08:47.942Z,102395.22
2023-04-10T01:11:38.838Z,102394.28
2023-04-10T01:14:38.644Z,102394.41
2023-04-10T01:17:40.672Z,102384.63
2023-04-10T01:20:32.144Z,102381.03
2023-04-10T01:23:42.346Z,102382.81
2023-04-10T01:26:20.103Z,102381.13
2023-04-10T01:29:19.899Z,102376.56
2023-04-10T01:32:02.585Z,102371.34
2023-04-10T01:34:44.915Z,102370.56
2023-04-10T01:37:32.122Z,102371.53
2023-04-10T01:40:10.075Z,102379.34
2023-04-10T01:42:49.172Z,102366.03
2023-04-10T01:45:26.200Z,102368.53
2023-04-10T01:47:58.690Z,102363.25
2023-04-10T01:50:32.135Z,102375.44
2023-04-10T01:53:07.332Z,102363.13
2023-04-10T01:55:40.173Z,102364.84
2023-04-10T01:58:12.850Z,102363.00
2023-04-10T02:00:44.938Z,102362.97
2023-04-10T02:03:17.266Z,102359.53
2023-04-10T02:06:21.660Z,102348.16
2023-04-10T02:09:12.881Z,102354.09
2023-04-10T02:12:09.596Z,102359.09
2023-04-10T02:14:46.012Z,102347.03
2023-04-10T02:17:23.852Z,102345.25
2023-04-10T02:20:00.303Z,102340.84
2023-04-10T02:22:32.828Z,102337.38
2023-04-10T02:25:06.507Z,102339.81
2023-04-10T02:27:39.366Z,102337.91
2023-04-10T02:30:11.905Z,102337.13
2023-04-10T02:32:44.325Z,102334.44
2023-04-10T02:35:16.509Z,102324.69
2023-04-10T02:37:50.966Z,102324.59
2023-04-10T02:40:23.171Z,102328.66
2023-04-10T02:42:55.250Z,102320.63
2023-04-10T02:45:27.337Z,102318.94
2023-04-10T02:48:00.357Z,102318.78
2023-04-10T02:50:33.026Z,102315.28
2023-04-10T02:53:05.062Z,102315.88
2023-04-10T02:55:37.127Z,102309.63
2023-04-10T02:58:09.178Z,102313.28
2023-04-10T03:00:41.216Z,102311.63
2023-04-10T03:03:13.366Z,102316.59
2023-04-10T03:05:47.268Z,102313.88
2023-04-10T03:08:42.696Z,102312.22
2023-04-10T03:11:14.741Z,102313.13
2023-04-10T03:13:47.754Z,102309.59
2023-04-10T03:16:19.894Z,102305.34
2023-04-10T03:18:53.115Z,102301.03
2023-04-10T03:21:25.181Z,102299.22
2023-04-10T03:23:57.302Z,102300.88
2023-04-10T03:26:29.391Z,102297.16
2023-04-10T03:29:01.462Z,102291.75
2023-04-10T03:31:33.541Z,102289.84
2023-04-10T03:34:06.017Z,102291.66
2023-04-10T03:36:38.359Z,102282.16
2023-04-10T03:39:10.471Z,102285.81
2023-04-10T03:41:42.527Z,102282.34
2023-04-10T03:44:14.580Z,102283.13
2023-04-10T03:46:46.685Z,102271.50
2023-04-10T03:49:18.785Z,102275.69
2023-04-10T03:51:50.888Z,102279.16
2023-04-10T03:54:22.955Z,102276.59
2023-04-10T03:56:54.964Z,102276.56
2023-04-10T03:59:37.830Z,102283.28
2023-04-10T04:02:11.238Z,102280.75
2023-04-10T04:04:43.579Z,102271.31
2023-04-10T04:07:15.640Z,102273.03
2023-04-10T04:09:48.152Z,102273.03
2023-04-10T04:12:20.209Z,102272.31
2023-04-10T04:14:52.367Z,102278.59
2023-04-10T04:17:24.511Z,102274.13
2023-04-10T04:19:56.652Z,102272.38
2023-04-10T04:22:28.656Z,102281.03
2023-04-10T04:25:00.775Z,102277.44
2023-04-10T04:27:32.819Z,102274.53
2023-04-10T04:30:06.641Z,102286.66
2023-04-10T04:32:38.972Z,102281.59
2023-04-10T04:35:11.278Z,102275.78
2023-04-10T04:37:43.392Z,102280.22
2023-04-10T04:40:15.590Z,102274.97
2023-04-10T04:42:50.650Z,102273.97
2023-04-10T04:45:22.843Z,102274.22
2023-04-10T04:47:54.895Z,102270.72
2023-04-10T04:50:26.975Z,102277.75
2023-04-10T04:53:00.607Z,102279.16
2023-04-10T04:55:32.674Z,102276.22
2023-04-10T04:58:04.813Z,102279.97
2023-04-10T05:00:36.869Z,102275.72
2023-04-10T05:03:09.174Z,102282.47
2023-04-10T05:05:41.365Z,102279.63
2023-04-10T05:08:13.450Z,102283.97
2023-04-10T05:10:45.587Z,102281.56
2023-04-10T05:13:17.775Z,102281.50
2023-04-10T05:15:50.038Z,102282.66
2023-04-10T05:18:24.068Z,102283.66
2023-04-10T05:20:56.260Z,102283.00
2023-04-10T05:23:28.388Z,102278.13
2023-04-10T05:26:00.506Z,102279.25
2023-04-10T05:28:32.644Z,102280.09
2023-04-10T05:31:04.985Z,102274.09
2023-04-10T05:33:37.045Z,102277.03
2023-04-10T05:36:10.600Z,102269.97
2023-04-10T05:38:42.669Z,102269.16
2023-04-10T05:41:14.763Z,102266.94
2023-04-10T05:43:46.800Z,102268.06
2023-04-10T05:46:18.930Z,102254.00
2023-04-10T05:48:51.687Z,102248.34
2023-04-10T05:51:24.155Z,102251.63
2023-04-10T05:53:56.310Z,102265.28
2023-04-10T05:56:28.413Z,102252.53
2023-04-10T05:59:00.558Z,102257.53
2023-04-10T06:01:32.594Z,102247.44
2023-04-10T06:04:04.925Z,102252.56
2023-04-10T06:06:37.189Z,102252.00
2023-04-10T06:09:09.301Z,102250.44
2023-04-10T06:11:41.640Z,102239.53
2023-04-10T06:14:13.671Z,102239.91
2023-04-10T06:16:45.776Z,102242.56
2023-04-10T06:19:17.862Z,102239.94
2023-04-10T06:21:50.312Z,102230.72
2023-04-10T06:24:22.595Z,102236.63
2023-04-10T06:26:54.668Z,102228.44
2023-04-10T06:29:26.726Z,102229.34
2023-04-10T06:31:58.815Z,102223.41
2023-04-10T06:34:30.900Z,102220.84
2023-04-10T06:37:03.038Z,102212.31
2023-04-10T06:39:35.131Z,102220.31
2023-04-10T06:42:07.204Z,102219.69
2023-04-10T06:44:39.303Z,102217.13
2023-04-10T06:47:11.677Z,102221.59
2023-04-10T06:49:43.910Z,102221.91
2023-04-10T06:52:16.953Z,102223.06
2023-04-10T06:54:49.286Z,102218.56
2023-04-10T06:57:21.516Z,102219.00
2023-04-10T06:59:53.583Z,102219.19
2023-04-10T07:02:25.836Z,102217.59
2023-04-10T07:04:58.176Z,102217.56
2023-04-10T07:07:30.508Z,102217.81
2023-04-10T07:10:02.577Z,102213.75
2023-04-10T07:12:47.317Z,102210.31
2023-04-10T07:15:19.391Z,102212.31
2023-04-10T07:17:51.514Z,102199.19
2023-04-10T07:20:23.544Z,102203.81
2023-04-10T07:22:55.665Z,102210.97
2023-04-10T07:25:37.556Z,102200.69
2023-04-10T07:28:09.749Z,102196.34
2023-04-10T07:30:41.987Z,102197.50
2023-04-10T07:33:14.254Z,102190.84
2023-04-10T07:35:46.652Z,102189.38
2023-04-10T07:38:19.312Z,102195.97
2023-04-10T07:40:57.668Z,102175.38
2023-04-10T07:43:30.205Z,102175.47
2023-04-10T07:46:02.323Z,102172.22
2023-04-10T07:48:34.428Z,102171.56
2023-04-10T07:51:09.426Z,102171.72
2023-04-10T07:53:41.631Z,102163.94
2023-04-10T07:56:18.896Z,102161.41
2023-04-10T07:58:52.089Z,102151.88
2023-04-10T08:01:24.362Z,102156.38
2023-04-10T08:03:56.749Z,102149.34
2023-04-10T08:06:29.120Z,102156.25
2023-04-10T08:09:02.181Z,102141.19
2023-04-10T08:11:38.319Z,102134.69
2023-04-10T08:14:10.960Z,102126.56
2023-04-10T08:16:43.117Z,102127.69
2023-04-10T08:19:15.564Z,102114.75
2023-04-10T08:21:47.621Z,102104.59
2023-04-10T08:24:21.642Z,102112.63
2023-04-10T08:26:53.696Z,102108.16
2023-04-10T08:29:25.783Z,102095.09
2023-04-10T08:32:00.762Z,102092.25
2023-04-10T08:34:32.829Z,102091.06
2023-04-10T08:37:11.894Z,102080.31
2023-04-10T08:39:44.110Z,102082.69
2023-04-10T08:42:16.220Z,102088.47
2023-04-10T08:44:50.528Z,102076.88
2023-04-10T08:47:28.339Z,102086.22
2023-04-10T08:50:06.980Z,102077.75
2023-04-10T08:52:44.651Z,102075.56
2023-04-10T08:55:17.310Z,102071.78
2023-04-10T08:57:57.986Z,102068.41
2023-04-10T09:00:40.052Z,102056.63
2023-04-10T09:03:21.650Z,102054.38
2023-04-10T09:05:54.958Z,102047.16
2023-04-10T09:08:27.086Z,102034.09
2023-04-10T09:10:59.175Z,102043.66
2023-04-10T09:13:44.121Z,102038.16
2023-04-10T09:16:16.479Z,102038.72
2023-04-10T09:18:51.581Z,102027.03
2023-04-10T09:21:23.690Z,102036.69
2023-04-10T09:24:02.145Z,102028.97
2023-04-10T09:26:34.416Z,102023.97
2023-04-10T09:29:08.108Z,102015.19
2023-04-10T09:31:40.686Z,102007.56
2023-04-10T09:34:19.391Z,102004.09
2023-04-10T09:37:01.969Z,101997.63
2023-04-10T09:39:38.637Z,101980.66
2023-04-10T09:42:15.165Z,101972.28
2023-04-10T09:44:47.231Z,101971.78
2023-04-10T09:47:24.483Z,101971.72
2023-04-10T09:50:00.909Z,101961.34
2023-04-10T09:52:35.161Z,101952.69
2023-04-10T09:55:08.924Z,101958.94
2023-04-10T09:57:41.202Z,101951.91
2023-04-10T10:00:14.854Z,101949.97
2023-04-10T10:02:48.836Z,101940.25
2023-04-10T10:05:23.073Z,101937.97
2023-04-10T10:07:55.620Z,101926.16
2023-04-10T10:10:27.799Z,101915.53
2023-04-10T10:13:03.856Z,101916.34
2023-04-10T10:15:58.742Z,101907.00
2023-04-10T10:19:00.223Z,101899.72
2023-04-10T10:21:34.470Z,101896.31
2023-04-10T10:24:10.067Z,101902.81
2023-04-10T10:26:44.497Z,101896.34
2023-04-10T10:29:18.821Z,101881.38
2023-04-10T10:31:51.253Z,101892.25
2023-04-10T10:34:23.623Z,101880.44
2023-04-10T10:36:55.672Z,101877.63
2023-04-10T10:40:02.406Z,101864.81
2023-04-10T10:42:43.409Z,101863.16
2023-04-10T10:45:27.163Z,101857.44
2023-04-10T10:47:59.620Z,101867.03
2023-04-10T10:50:52.589Z,101855.00
2023-04-10T10:53:35.346Z,101844.22
2023-04-10T10:56:19.853Z,101827.25
2023-04-10T10:58:56.139Z,101827.06
2023-04-10T11:01:28.835Z,101832.28
2023-04-10T11:04:01.094Z,101827.69
2023-04-10T11:06:52.676Z,101815.47
2023-04-10T11:09:51.599Z,101797.81
2023-04-10T11:12:26.091Z,101810.63
2023-04-10T11:15:04.703Z,101789.50
2023-04-10T11:17:54.612Z,101788.59
2023-04-10T11:20:27.962Z,101794.56
2023-04-10T11:23:13.304Z,101788.63
2023-04-10T11:25:55.953Z,101781.06
2023-04-10T11:28:33.924Z,101786.72
2023-04-10T11:31:22.784Z,101774.69
2023-04-10T11:33:57.806Z,101778.69
2023-04-10T11:36:30.791Z,101768.72
2023-04-10T11:39:09.208Z,101763.88
2023-04-10T11:41:46.699Z,101756.91
2023-04-10T11:44:28.034Z,101750.41
2023-04-10T11:47:00.239Z,101733.59
2023-04-10T11:49:34.803Z,101746.22
2023-04-10T11:52:07.328Z,101740.00
2023-04-10T11:54:49.256Z,101737.06
2023-04-10T11:57:21.675Z,101733.19
2023-04-10T11:59:53.742Z,101733.19
2023-04-10T12:02:26.157Z,101716.69
2023-04-10T12:04:59.576Z,101722.28
2023-04-10T12:07:33.047Z,101717.97
2023-04-10T12:10:06.392Z,101710.84
2023-04-10T12:12:38.581Z,101710.94
2023-04-10T12:15:30.326Z,101709.28
2023-04-10T12:18:02.917Z,101705.88
2023-04-10T12:20:35.081Z,101715.97
2023-04-10T12:23:07.266Z,101707.16
2023-04-10T12:25:40.806Z,101681.03
2023-04-10T12:28:21.739Z,101674.84
2023-04-10T12:30:55.368Z,101670.09
2023-04-10T12:33:27.545Z,101667.25
2023-04-10T12:36:00.093Z,101666.53
2023-04-10T12:38:50.532Z,101656.22
2023-04-10T12:41:28.846Z,101640.94
2023-04-10T12:44:13.745Z,101641.03
2023-04-10T12:46:46.306Z,101640.66
2023-04-10T12:49:19.092Z,101617.84
2023-04-10T12:51:52.737Z,101625.00
2023-04-10T12:54:37.246Z,101603.31
2023-04-10T12:57:09.446Z,101598.56
2023-04-10T12:59:45.009Z,101615.81
2023-04-10T13:02:18.998Z,101603.78
2023-04-10T13:04:51.588Z,101594.03
2023-04-10T13:07:23.736Z,101595.34
2023-04-10T13:09:55.894Z,101587.28
2023-04-10T13:12:30.115Z,101591.38
2023-04-10T13:15:03.063Z,101581.88
2023-04-10T13:17:35.504Z,101573.47
2023-04-10T13:20:09.993Z,101565.53
2023-04-10T13:22:42.130Z,101557.09
2023-04-10T13:25:14.248Z,101563.97
2023-04-10T13:27:46.319Z,101562.69
2023-04-10T13:30:18.432Z,101540.50
2023-04-10T13:32:50.522Z,101532.44
2023-04-10T13:35:22.748Z,101536.34
2023-04-10T13:37:54.810Z,101521.16
2023-04-10T13:40:27.271Z,101519.31
2023-04-10T13:42:59.561Z,101504.63
2023-04-10T13:45:31.664Z,101494.16
2023-04-10T13:48:04.246Z,101501.03
2023-04-10T13:50:36.455Z,101489.44
2023-04-10T13:53:10.434Z,101495.09
2023-04-10T13:55:44.008Z,101479.75
2023-04-10T13:58:16.212Z,101468.31
2023-04-10T14:00:48.295Z,101463.28
2023-04-10T14:03:20.522Z,101452.84
2023-04-10T14:05:53.375Z,101448.84
2023-04-10T14:08:25.520Z,101441.63
2023-04-10T14:10:57.685Z,101444.41
2023-04-10T14:13:30.613Z,101452.34
2023-04-10T14:16:04.379Z,101433.91
2023-04-10T14:18:37.525Z,101429.63
2023-04-10T14:21:10.279Z,101430.97
2023-04-10T14:23:43.171Z,101418.16
2023-04-10T14:26:15.531Z,101418.03
2023-04-10T14:28:47.598Z,101428.06
2023-04-10T14:31:20.652Z,101400.44
2023-04-10T14:33:52.935Z,101399.22
2023-04-10T14:36:25.695Z,101389.91
2023-04-10T14:38:57.720Z,101387.38
2023-04-10T14:41:29.978Z,101372.50
2023-04-10T14:44:03.306Z,101358.31
2023-04-10T14:46:35.481Z,101366.34
2023-04-10T14:49:07.548Z,101354.94
2023-04-10T14:51:39.668Z,101347.56
2023-04-10T14:54:11.851Z,101353.69
2023-04-10T14:56:44.381Z,101342.38
2023-04-10T15:02:03.349Z,101342.06
2023-04-10T15:04:36.220Z,101328.47
2023-04-10T15:07:08.380Z,101337.28
2023-04-10T15:09:41.085Z,101322.28
2023-04-10T15:12:13.198Z,101319.66
2023-04-10T15:14:45.298Z,101311.09
2023-04-10T15:17:17.567Z,101313.19
2023-04-10T15:19:49.680Z,101300.19
2023-04-10T15:22:22.011Z,101286.97
2023-04-10T15:24:54.082Z,101282.97
2023-04-10T15:27:29.013Z,101305.59
2023-04-10T15:30:01.342Z,101294.84
2023-04-10T15:32:38.010Z,101278.44
2023-04-10T15:35:10.391Z,101274.22
2023-04-10T15:37:42.649Z,101269.41
2023-04-10T15:40:14.746Z,101263.50
2023-04-10T15:42:46.821Z,101251.50
2023-04-10T15:45:19.025Z,101244.09
2023-04-10T15:47:51.180Z,101241.75
2023-04-10T15:50:23.273Z,101239.16
2023-04-10T15:52:55.381Z,101234.56
2023-04-10T15:55:27.537Z,101216.47
2023-04-10T15:58:02.251Z,101212.72
2023-04-10T16:00:34.776Z,101215.94
2023-04-10T16:03:07.138Z,101211.41
2023-04-10T16:05:41.460Z,101204.38
2023-04-10T16:08:13.593Z,101193.28
2023-04-10T16:10:47.556Z,101181.28
2023-04-10T16:13:19.697Z,101191.88
2023-04-10T16:15:52.309Z,101179.50
2023-04-10T16:18:24.612Z,101191.38
2023-04-10T16:20:56.686Z,101170.38
2023-04-10T16:23:28.811Z,101174.66
2023-04-10T16:26:01.037Z,101166.03
2023-04-10T16:28:33.173Z,101169.72
2023-04-10T16:31:05.729Z,101177.81
2023-04-10T16:33:37.813Z,101174.06
2023-04-10T16:36:10.190Z,101173.00
2023-04-10T16:38:42.375Z,101166.94
2023-04-10T16:41:21.071Z,101162.44
2023-04-10T16:43:53.326Z,101159.44
2023-04-10T16:46:26.965Z,101157.56
2023-04-10T16:48:59.098Z,101155.91
2023-04-10T16:51:31.375Z,101155.81
2023-04-10T16:54:03.963Z,101154.84
2023-04-10T16:56:36.069Z,101145.97
2023-04-10T16:59:08.206Z,101142.50
2023-04-10T17:01:40.399Z,101132.72
2023-04-10T17:04:13.608Z,101125.97
2023-04-10T17:06:45.694Z,101126.09
2023-04-10T17:09:17.960Z,101124.31
2023-04-10T17:11:50.276Z,101124.66
2023-04-10T17:14:22.387Z,101120.69
2023-04-10T17:16:54.533Z,101112.63
2023-04-10T17:19:26.619Z,101118.88
2023-04-10T17:21:58.790Z,101110.13
2023-04-10T17:24:31.765Z,101106.59
2023-04-10T17:27:03.934Z,101109.56
2023-04-10T17:29:39.976Z,101099.81
2023-04-10T17:32:12.080Z,101106.16
2023-04-10T17:34:44.480Z,101091.13
2023-04-10T17:37:16.626Z,101113.16
2023-04-10T17:39:51.899Z,101126.28
2023-04-10T17:42:25.924Z,101126.25
2023-04-10T17:44:58.380Z,101081.22
2023-04-10T17:47:30.580Z,101013.00
2023-04-10T17:50:04.228Z,101022.63
2023-04-10T17:52:52.541Z,101041.22
2023-04-10T17:55:24.944Z,101029.53
2023-04-10T17:58:00.036Z,101028.31
2023-04-10T18:00:35.446Z,101024.69
2023-04-10T18:03:07.773Z,101021.13
2023-04-10T18:05:40.088Z,101023.75
2023-04-10T18:08:14.385Z,101007.19
2023-04-10T18:10:46.796Z,101014.81
2023-04-10T18:13:19.028Z,101000.69
2023-04-10T18:15:51.303Z,100999.59
2023-04-10T18:18:54.989Z,100991.47
2023-04-10T18:21:28.165Z,100978.25
2023-04-10T18:24:00.597Z,100989.81
2023-04-10T18:26:35.438Z,100988.09
2023-04-10T18:29:08.006Z,100984.53
2023-04-10T18:31:40.222Z,100989.63
2023-04-10T18:34:12.678Z,100992.22
2023-04-10T18:36:44.989Z,100983.34
2023-04-10T18:39:17.076Z,100985.03
2023-04-10T18:41:49.233Z,100996.91
2023-04-10T18:44:21.294Z,100988.50
2023-04-10T18:47:22.687Z,100991.78
2023-04-10T18:50:23.646Z,100978.84
2023-04-10T18:52:56.186Z,100976.97
2023-04-10T18:55:28.452Z,100972.38
2023-04-10T18:58:01.038Z,100971.50
2023-04-10T19:00:34.361Z,100966.41
2023-04-10T19:03:06.764Z,100955.84
2023-04-10T19:05:49.508Z,100956.75
2023-04-10T19:08:21.779Z,100945.16
2023-04-10T19:10:54.017Z,100947.97
2023-04-10T19:57:30.483Z,100957.31
2023-04-10T20:22:27.195Z,100989.59
2023-04-10T20:29:22.687Z,100972.59
2023-04-10T20:56:47.979Z,100928.41
2023-04-10T21:02:44.122Z,100928.56
2023-04-10T21:05:31.781Z,100931.19
2023-04-10T21:15:59.276Z,100919.13
2023-04-10T21:29:39.482Z,100888.63
2023-04-10T21:32:11.897Z,100886.88
2023-04-10T21:34:44.338Z,100873.78
2023-04-10T21:37:19.543Z,100866.81
2023-04-10T21:39:52.017Z,100846.75
2023-04-10T21:42:24.472Z,100818.88
2023-04-10T21:44:58.102Z,100832.03
2023-04-10T21:47:30.852Z,100834.63
2023-04-10T21:50:03.193Z,100818.91
2023-04-10T21:52:35.650Z,100802.31
2023-04-10T21:55:08.941Z,100796.19
2023-04-10T21:57:41.300Z,100807.53
2023-04-10T22:00:14.737Z,100810.94
2023-04-10T22:02:47.241Z,100810.91
2023-04-10T22:05:19.735Z,100811.72
2023-04-10T22:07:52.590Z,100816.91
2023-04-10T22:10:25.042Z,100826.47
2023-04-10T22:12:57.510Z,100819.50
2023-04-10T22:15:29.709Z,100812.50
2023-04-10T22:18:01.997Z,100803.72
2023-04-10T22:20:34.588Z,100805.56
2023-04-10T22:23:07.023Z,100816.06
2023-04-10T22:25:39.304Z,100811.69
2023-04-10T22:28:11.651Z,100807.22
2023-04-10T22:30:43.959Z,100809.06
2023-04-10T22:33:16.408Z,100789.13
2023-04-10T22:35:49.391Z,100790.91
2023-04-10T22:38:21.672Z,100789.28
2023-04-10T22:40:55.511Z,100782.25
2023-04-10T22:43:28.022Z,100769.28
2023-04-10T22:46:00.786Z,100752.75
2023-04-10T22:48:36.418Z,100749.22
2023-04-10T22:51:12.995Z,100762.25
2023-04-10T22:53:45.265Z,100764.03
2023-04-10T22:56:18.821Z,100771.03
2023-04-10T22:58:51.229Z,100763.19
2023-04-10T23:01:23.563Z,100749.28
2023-04-10T23:03:55.909Z,100758.03
2023-04-10T23:06:28.269Z,100749.31
2023-04-10T23:09:00.601Z,100750.19
2023-04-10T23:11:33.443Z,100741.56
2023-04-10T23:14:05.809Z,100739.78
2023-04-10T23:16:38.344Z,100737.13
2023-04-10T23:19:10.650Z,100738.81
2023-04-10T23:21:42.850Z,100715.38
2023-04-10T23:24:15.170Z,100716.22
2023-04-10T23:26:47.515Z,100707.47
2023-04-10T23:29:19.972Z,100709.19
2023-04-10T23:31:52.171Z,100693.50
2023-04-10T23:34:24.439Z,100703.94
2023-04-10T23:36:57.214Z,100715.28
2023-04-10T23:39:29.648Z,100714.38
2023-04-10T23:42:02.479Z,100723.97
2023-04-10T23:44:34.765Z,100710.97
2023-04-10T23:47:07.361Z,100716.25
2023-04-10T23:49:39.909Z,100722.34
2023-04-10T23:52:12.204Z,100710.22
2023-04-10T23:54:44.578Z,100710.22
2023-04-10T23:57:17.093Z,100712.94
2023-04-10T23:59:49.783Z,100705.97
